createdAt,value
2023-05-24T00:00:30.955Z,10.10
2023-05-24T00:02:59.406Z,10.40
2023-05-24T00:05:31.237Z,9.77
2023-05-24T00:08:00.176Z,11.10
2023-05-24T00:10:28.176Z,10.03
2023-05-24T00:12:57.599Z,10.57
2023-05-24T00:15:25.673Z,9.77
2023-05-24T00:17:53.624Z,10.43
2023-05-24T00:20:21.683Z,10.67
2023-05-24T00:22:49.654Z,10.43
2023-05-24T00:25:17.565Z,10.20
2023-05-24T00:27:45.519Z,10.83
2023-05-24T00:30:15.242Z,10.90
2023-05-24T00:32:43.570Z,10.67
2023-05-24T00:35:12.318Z,10.30
2023-05-24T00:37:41.931Z,10.30
2023-05-24T00:40:11.088Z,10.83
2023-05-24T00:42:39.349Z,10.33
2023-05-24T00:45:08.466Z,10.47
2023-05-24T00:47:38.418Z,10.20
2023-05-24T00:50:08.394Z,11.10
2023-05-24T00:52:37.069Z,10.10
2023-05-24T00:55:05.716Z,9.87
2023-05-24T00:57:33.782Z,9.30
2023-05-24T01:00:01.754Z,10.13
2023-05-24T01:02:30.273Z,10.10
2023-05-24T01:05:00.051Z,9.90
2023-05-24T01:07:33.739Z,10.70
2023-05-24T01:10:11.017Z,9.80
2023-05-24T01:12:52.819Z,9.90
2023-05-24T01:15:26.152Z,10.33
2023-05-24T01:18:02.569Z,9.50
2023-05-24T01:20:34.688Z,10.83
2023-05-24T01:23:14.733Z,10.97
2023-05-24T01:25:50.912Z,11.57
2023-05-24T01:28:20.747Z,10.03
2023-05-24T01:30:49.144Z,10.50
2023-05-24T01:33:17.403Z,10.70
2023-05-24T01:35:45.335Z,10.30
2023-05-24T01:38:15.807Z,11.63
2023-05-24T01:40:44.754Z,11.50
2023-05-24T01:43:19.447Z,11.13
2023-05-24T01:46:00.334Z,10.30
2023-05-24T01:48:35.636Z,10.97
2023-05-24T01:51:08.383Z,10.87
2023-05-24T01:53:42.322Z,11.60
2023-05-24T01:56:12.798Z,10.50
2023-05-24T01:58:43.176Z,11.10
2023-05-24T02:01:13.708Z,11.33
2023-05-24T02:03:41.947Z,10.27
2023-05-24T02:06:10.769Z,11.33
2023-05-24T02:08:41.087Z,10.30
2023-05-24T02:11:09.160Z,11.17
2023-05-24T02:13:37.076Z,10.80
2023-05-24T02:16:05.581Z,11.87
2023-05-24T02:18:35.052Z,10.40
2023-05-24T02:21:03.189Z,9.23
2023-05-24T02:23:31.095Z,9.97
2023-05-24T02:26:01.464Z,9.63
2023-05-24T02:28:32.178Z,10.87
2023-05-24T02:31:00.268Z,11.03
2023-05-24T02:33:29.795Z,11.10
2023-05-24T02:35:59.208Z,11.13
2023-05-24T02:38:27.564Z,11.63
2023-05-24T02:40:55.592Z,10.63
2023-05-24T02:43:23.466Z,10.23
2023-05-24T02:45:51.370Z,11.30
2023-05-24T02:48:19.291Z,16.50
2023-05-24T02:50:47.447Z,9.70
2023-05-24T02:53:16.748Z,10.20
2023-05-24T02:55:46.725Z,11.10
2023-05-24T02:58:17.664Z,11.13
2023-05-24T03:00:48.693Z,11.37
2023-05-24T03:03:17.206Z,10.50
2023-05-24T03:05:46.408Z,11.43
2023-05-24T03:08:16.786Z,11.10
2023-05-24T03:10:44.927Z,10.43
2023-05-24T03:13:14.299Z,10.70
2023-05-24T03:15:43.953Z,10.57
2023-05-24T03:18:11.824Z,12.37
2023-05-24T03:20:41.714Z,11.30
2023-05-24T03:23:10.658Z,11.80
2023-05-24T03:25:39.970Z,12.13
2023-05-24T03:28:08.461Z,12.30
2023-05-24T03:30:36.402Z,12.93
2023-05-24T03:33:04.654Z,12.90
2023-05-24T03:35:33.460Z,13.37
2023-05-24T03:38:01.474Z,13.73
2023-05-24T03:40:33.619Z,13.93
2023-05-24T03:43:19.124Z,13.43
2023-05-24T03:45:51.290Z,13.97
2023-05-24T03:48:20.885Z,14.87
2023-05-24T03:50:49.181Z,13.93
2023-05-24T03:53:20.032Z,13.90
2023-05-24T03:55:48.994Z,13.77
2023-05-24T03:58:16.949Z,13.70
2023-05-24T04:00:48.095Z,14.73
2023-05-24T04:03:16.087Z,15.60
2023-05-24T04:05:44.093Z,14.23
2023-05-24T04:08:12.404Z,14.00
2023-05-24T04:10:40.687Z,15.37
2023-05-24T04:13:12.119Z,14.80
2023-05-24T04:15:40.071Z,14.70
2023-05-24T04:18:09.713Z,14.50
2023-05-24T04:20:38.491Z,15.83
2023-05-24T04:23:06.525Z,14.47
2023-05-24T04:25:35.128Z,14.63
2023-05-24T04:28:03.869Z,13.97
2023-05-24T04:30:33.502Z,14.37
2023-05-24T04:33:01.843Z,13.73
2023-05-24T04:35:31.618Z,14.40
2023-05-24T04:37:59.987Z,19.53
2023-05-24T04:40:27.883Z,15.50
2023-05-24T04:42:56.102Z,15.83
2023-05-24T04:45:24.047Z,14.40
2023-05-24T04:47:51.993Z,14.13
2023-05-24T04:50:19.901Z,13.17
2023-05-24T04:52:49.225Z,14.47
2023-05-24T04:55:17.168Z,12.70
2023-05-24T04:57:45.037Z,13.70
2023-05-24T05:00:14.277Z,12.33
2023-05-24T05:02:42.278Z,13.37
2023-05-24T05:05:10.826Z,13.87
2023-05-24T05:07:38.751Z,17.17
2023-05-24T05:10:09.614Z,13.50
2023-05-24T05:12:37.625Z,13.30
2023-05-24T05:15:06.498Z,14.70
2023-05-24T05:17:34.975Z,14.37
2023-05-24T05:20:03.032Z,12.57
2023-05-24T05:22:31.379Z,13.30
2023-05-24T05:24:59.547Z,14.30
2023-05-24T05:27:28.816Z,14.37
2023-05-24T05:29:56.831Z,14.70
2023-05-24T05:32:25.227Z,15.13
2023-05-24T05:34:53.787Z,13.40
2023-05-24T05:37:21.650Z,13.70
2023-05-24T05:39:49.625Z,14.13
2023-05-24T05:42:17.653Z,14.20
2023-05-24T05:44:47.011Z,14.33
2023-05-24T05:47:14.981Z,14.40
2023-05-24T05:49:42.839Z,12.93
2023-05-24T05:52:12.218Z,14.30
2023-05-24T05:54:40.225Z,14.57
2023-05-24T05:57:10.606Z,13.70
2023-05-24T05:59:38.919Z,14.40
2023-05-24T06:02:08.613Z,14.67
2023-05-24T06:04:36.647Z,14.50
2023-05-24T06:07:04.608Z,13.07
2023-05-24T06:09:32.711Z,13.63
2023-05-24T06:12:00.588Z,12.23
2023-05-24T06:14:28.832Z,13.83
2023-05-24T06:16:58.055Z,12.90
2023-05-24T06:19:29.375Z,11.43
2023-05-24T06:21:57.554Z,11.50
2023-05-24T06:24:25.973Z,11.80
2023-05-24T06:26:54.145Z,10.33
2023-05-24T06:29:22.630Z,11.00
2023-05-24T06:31:51.095Z,11.83
2023-05-24T06:34:21.580Z,11.70
2023-05-24T06:36:51.606Z,10.20
2023-05-24T06:39:19.979Z,10.40
2023-05-24T06:41:51.147Z,10.50
2023-05-24T06:44:31.038Z,10.60
2023-05-24T06:46:59.346Z,11.03
2023-05-24T06:49:27.855Z,11.10
2023-05-24T06:51:57.161Z,11.07
2023-05-24T06:54:25.657Z,9.90
2023-05-24T06:56:53.557Z,9.90
2023-05-24T06:59:21.434Z,10.93
2023-05-24T07:01:51.765Z,10.50
2023-05-24T07:04:19.792Z,10.63
2023-05-24T07:06:47.701Z,10.27
2023-05-24T07:09:16.931Z,9.47
2023-05-24T07:11:45.062Z,9.70
2023-05-24T07:14:13.086Z,9.80
2023-05-24T07:16:41.059Z,10.47
2023-05-24T07:19:09.489Z,11.00
2023-05-24T07:21:37.428Z,9.97
2023-05-24T07:24:05.642Z,9.43
2023-05-24T07:26:35.066Z,9.57
2023-05-24T07:29:02.914Z,8.93
2023-05-24T07:31:32.546Z,8.87
2023-05-24T07:34:00.509Z,10.23
2023-05-24T07:36:34.830Z,9.70
2023-05-24T07:39:05.262Z,8.87
2023-05-24T07:41:34.534Z,9.70
2023-05-24T07:44:02.434Z,10.23
2023-05-24T07:46:30.380Z,9.30
2023-05-24T07:48:58.327Z,9.00
2023-05-24T07:51:26.634Z,9.80
2023-05-24T07:53:54.596Z,9.10
2023-05-24T07:56:22.519Z,8.27
2023-05-24T07:58:51.849Z,9.50
2023-05-24T08:01:20.054Z,9.50
2023-05-24T08:03:48.521Z,9.37
2023-05-24T08:06:16.671Z,9.30
2023-05-24T08:08:45.871Z,10.00
2023-05-24T08:11:13.760Z,8.20
2023-05-24T08:13:41.665Z,9.03
2023-05-24T08:16:11.120Z,8.40
2023-05-24T08:18:39.082Z,8.20
2023-05-24T08:21:08.021Z,8.70
2023-05-24T08:23:36.387Z,8.40
2023-05-24T08:26:04.544Z,9.20
2023-05-24T08:28:32.912Z,8.30
2023-05-24T08:31:00.815Z,9.33
2023-05-24T08:33:30.110Z,7.90
2023-05-24T08:35:57.994Z,8.47
2023-05-24T08:38:25.871Z,8.73
2023-05-24T08:40:53.860Z,8.30
2023-05-24T08:43:22.582Z,8.87
2023-05-24T08:45:51.271Z,7.57
2023-05-24T08:48:20.265Z,8.70
2023-05-24T08:50:50.184Z,7.87
2023-05-24T08:53:19.399Z,7.20
2023-05-24T08:55:47.487Z,8.50
2023-05-24T08:58:15.685Z,8.20
2023-05-24T09:00:43.599Z,7.93
2023-05-24T09:03:12.411Z,8.53
2023-05-24T09:05:42.480Z,8.43
2023-05-24T09:08:13.473Z,8.50
2023-05-24T09:10:54.001Z,7.40
2023-05-24T09:13:24.316Z,8.17
2023-05-24T09:15:52.407Z,7.90
2023-05-24T09:18:21.055Z,7.03
2023-05-24T09:20:49.177Z,7.90
2023-05-24T09:23:18.987Z,7.13
2023-05-24T09:25:47.866Z,7.53
2023-05-24T09:28:17.802Z,7.13
2023-05-24T09:30:46.537Z,7.10
2023-05-24T09:33:14.468Z,7.37
2023-05-24T09:35:44.257Z,8.40
2023-05-24T09:38:19.708Z,7.20
2023-05-24T09:40:47.848Z,7.30
2023-05-24T09:43:15.763Z,7.00
2023-05-24T09:45:46.937Z,7.77
2023-05-24T09:48:16.589Z,7.40
2023-05-24T09:50:47.582Z,6.60
2023-05-24T09:53:19.874Z,7.40
2023-05-24T09:55:48.869Z,7.30
2023-05-24T09:58:18.266Z,7.50
2023-05-24T10:00:47.231Z,7.40
2023-05-24T10:03:15.678Z,8.30
2023-05-24T10:05:45.850Z,7.80
2023-05-24T10:08:14.310Z,7.50
2023-05-24T10:10:44.434Z,7.23
2023-05-24T10:13:15.696Z,7.50
2023-05-24T10:15:44.045Z,7.30
2023-05-24T10:18:13.860Z,6.53
2023-05-24T10:20:43.223Z,6.20
2023-05-24T10:23:15.307Z,7.00
2023-05-24T10:25:56.487Z,6.60
2023-05-24T10:28:26.121Z,6.90
2023-05-24T10:31:04.280Z,7.07
2023-05-24T10:33:36.146Z,7.17
2023-05-24T10:36:07.189Z,6.40
2023-05-24T10:38:39.667Z,6.77
2023-05-24T10:41:09.357Z,6.83
2023-05-24T10:43:37.980Z,7.47
2023-05-24T10:46:09.206Z,6.80
2023-05-24T10:48:41.129Z,6.60
2023-05-24T10:51:32.836Z,6.10
2023-05-24T10:54:14.044Z,6.73
2023-05-24T10:56:45.680Z,5.80
2023-05-24T10:59:47.074Z,7.47
2023-05-24T11:02:16.550Z,6.40
2023-05-24T11:04:49.098Z,7.00
2023-05-24T11:07:19.654Z,5.70
2023-05-24T11:09:53.211Z,6.83
2023-05-24T11:12:22.684Z,7.00
2023-05-24T11:14:52.547Z,7.13
2023-05-24T11:17:22.869Z,6.77
2023-05-24T11:19:52.904Z,6.50
2023-05-24T11:22:22.649Z,6.00
2023-05-24T11:24:51.729Z,5.53
2023-05-24T11:27:19.619Z,6.13
2023-05-24T11:29:59.123Z,6.37
2023-05-24T11:32:27.619Z,6.20
2023-05-24T11:34:56.235Z,6.50
2023-05-24T11:37:35.160Z,6.17
2023-05-24T11:40:13.160Z,6.50
2023-05-24T11:42:41.157Z,6.47
2023-05-24T11:45:11.845Z,6.80
2023-05-24T11:47:41.660Z,6.70
2023-05-24T11:50:10.453Z,7.10
2023-05-24T11:52:40.177Z,5.50
2023-05-24T11:55:08.873Z,6.33
2023-05-24T11:57:40.075Z,7.70
2023-05-24T12:00:16.972Z,6.43
2023-05-24T12:02:45.677Z,6.80
2023-05-24T12:05:14.381Z,7.03
2023-05-24T12:07:45.102Z,6.80
2023-05-24T12:10:14.046Z,5.83
2023-05-24T12:12:46.269Z,6.10
2023-05-24T12:15:18.496Z,6.33
2023-05-24T12:17:50.207Z,7.33
2023-05-24T12:20:20.354Z,7.17
2023-05-24T12:22:53.033Z,6.70
2023-05-24T12:25:21.913Z,6.70
2023-05-24T12:27:55.752Z,6.70
2023-05-24T12:30:26.355Z,6.73
2023-05-24T12:32:54.879Z,6.77
2023-05-24T12:35:23.152Z,6.90
2023-05-24T12:37:51.681Z,6.60
2023-05-24T12:40:21.947Z,6.20
2023-05-24T12:42:53.336Z,6.93
2023-05-24T12:45:25.767Z,6.73
2023-05-24T12:47:55.849Z,6.50
2023-05-24T12:50:25.807Z,6.23
2023-05-24T12:52:54.333Z,6.20
2023-05-24T12:55:25.191Z,6.60
2023-05-24T12:57:54.500Z,6.40
2023-05-24T13:00:24.303Z,6.80
2023-05-24T13:02:54.769Z,7.90
2023-05-24T13:05:24.723Z,6.73
2023-05-24T13:07:53.625Z,6.20
2023-05-24T13:10:21.551Z,6.17
2023-05-24T13:12:49.607Z,6.30
2023-05-24T13:15:19.426Z,6.40
2023-05-24T13:17:47.792Z,6.53
2023-05-24T13:20:16.035Z,7.00
2023-05-24T13:22:45.334Z,7.20
2023-05-24T13:25:13.294Z,6.37
2023-05-24T13:27:41.314Z,6.70
2023-05-24T13:30:10.366Z,6.77
2023-05-24T13:32:41.036Z,6.87
2023-05-24T13:35:09.965Z,6.37
2023-05-24T13:37:38.079Z,6.33
2023-05-24T13:40:09.067Z,6.63
2023-05-24T13:42:37.075Z,7.43
2023-05-24T13:45:06.038Z,6.23
2023-05-24T13:47:39.843Z,6.57
2023-05-24T13:50:09.208Z,7.60
2023-05-24T13:52:37.864Z,6.60
2023-05-24T13:55:08.964Z,7.10
2023-05-24T13:57:50.499Z,7.03
2023-05-24T14:00:20.515Z,5.67
2023-05-24T14:02:48.904Z,6.77
2023-05-24T14:05:27.599Z,7.00
2023-05-24T14:07:57.465Z,6.77
2023-05-24T14:10:26.987Z,7.00
2023-05-24T14:13:12.768Z,6.23
2023-05-24T14:15:44.766Z,6.30
2023-05-24T14:18:12.885Z,6.60
2023-05-24T14:20:40.935Z,6.80
2023-05-24T14:23:10.034Z,6.80
2023-05-24T14:25:41.345Z,6.57
2023-05-24T14:28:09.604Z,7.20
2023-05-24T14:30:38.561Z,6.20
2023-05-24T14:33:08.197Z,7.50
2023-05-24T14:35:39.639Z,6.90
2023-05-24T14:38:10.774Z,6.67
2023-05-24T14:40:40.922Z,6.90
2023-05-24T14:43:10.580Z,6.67
2023-05-24T14:45:41.360Z,6.17
2023-05-24T14:48:11.532Z,5.90
2023-05-24T14:50:40.821Z,6.90
2023-05-24T14:53:11.854Z,6.77
2023-05-24T14:55:43.062Z,6.63
2023-05-24T14:58:12.620Z,7.00
2023-05-24T15:00:41.672Z,6.57
2023-05-24T15:03:11.434Z,7.33
2023-05-24T15:05:39.956Z,7.57
2023-05-24T15:08:08.096Z,6.33
2023-05-24T15:10:36.121Z,6.43
2023-05-24T15:13:05.614Z,7.00
2023-05-24T15:15:33.474Z,6.77
2023-05-24T15:18:01.448Z,6.77
2023-05-24T15:20:29.682Z,7.37
2023-05-24T15:22:57.599Z,6.67
2023-05-24T15:25:25.554Z,7.30
2023-05-24T15:27:53.395Z,7.97
2023-05-24T15:30:24.048Z,6.93
2023-05-24T15:32:52.053Z,6.80
2023-05-24T15:35:20.064Z,8.00
2023-05-24T15:37:48.050Z,6.97
2023-05-24T15:40:16.250Z,6.20
2023-05-24T15:42:45.108Z,7.30
2023-05-24T15:45:13.263Z,6.93
2023-05-24T15:47:42.622Z,6.80
2023-05-24T15:50:11.426Z,6.90
2023-05-24T15:52:39.445Z,6.50
2023-05-24T15:55:08.628Z,6.40
2023-05-24T15:57:36.509Z,6.00
2023-05-24T16:00:05.355Z,6.30
2023-05-24T16:02:40.157Z,6.90
2023-05-24T16:05:10.304Z,8.77
2023-05-24T16:07:38.255Z,6.80
2023-05-24T16:10:07.100Z,6.53
2023-05-24T16:12:35.215Z,6.73
2023-05-24T16:15:03.167Z,6.10
2023-05-24T16:17:32.884Z,7.00
2023-05-24T16:20:01.341Z,6.23
2023-05-24T16:22:30.663Z,7.23
2023-05-24T16:24:58.500Z,6.47
2023-05-24T16:27:26.386Z,6.57
2023-05-24T16:29:54.318Z,7.10
2023-05-24T16:32:22.350Z,7.03
2023-05-24T16:34:56.654Z,6.83
2023-05-24T16:37:24.881Z,6.73
2023-05-24T16:39:54.082Z,6.07
2023-05-24T16:42:22.020Z,6.83
2023-05-24T16:44:49.953Z,6.60
2023-05-24T16:47:17.890Z,6.30
2023-05-24T16:49:45.791Z,6.10
2023-05-24T16:52:13.672Z,7.10
2023-05-24T16:54:41.560Z,5.90
2023-05-24T16:57:10.880Z,6.57
2023-05-24T16:59:38.841Z,6.33
2023-05-24T17:02:07.042Z,6.73
2023-05-24T17:04:35.438Z,6.47
2023-05-24T17:07:03.311Z,6.33
2023-05-24T17:09:31.142Z,7.37
2023-05-24T17:11:59.169Z,6.73
2023-05-24T17:14:28.434Z,6.20
2023-05-24T17:16:56.331Z,7.13
2023-05-24T17:19:25.245Z,6.20
2023-05-24T17:21:53.143Z,6.20
2023-05-24T17:24:22.375Z,6.57
2023-05-24T17:26:50.288Z,6.40
2023-05-24T17:29:18.163Z,6.67
2023-05-24T17:31:47.602Z,6.90
2023-05-24T17:34:16.901Z,7.17
2023-05-24T17:36:45.000Z,6.73
2023-05-24T17:39:13.011Z,7.37
2023-05-24T17:41:41.077Z,6.80
2023-05-24T17:44:09.197Z,7.33
2023-05-24T17:46:39.072Z,6.30
2023-05-24T17:49:12.577Z,7.10
2023-05-24T17:51:40.688Z,6.43
2023-05-24T17:54:08.523Z,7.20
2023-05-24T17:56:36.411Z,7.40
2023-05-24T17:59:04.335Z,6.90
2023-05-24T18:01:32.402Z,6.40
2023-05-24T18:04:01.046Z,7.23
2023-05-24T18:06:30.901Z,8.87
2023-05-24T18:08:58.914Z,7.57
2023-05-24T18:11:27.750Z,7.53
2023-05-24T18:13:55.838Z,7.70
2023-05-24T18:16:24.079Z,10.70
2023-05-24T18:18:52.079Z,8.47
2023-05-24T18:21:20.042Z,7.20
2023-05-24T18:23:49.411Z,7.90
2023-05-24T18:26:17.776Z,7.97
2023-05-24T18:28:45.852Z,8.33
2023-05-24T18:31:14.838Z,8.73
2023-05-24T18:33:43.319Z,8.47
2023-05-24T18:36:12.497Z,8.73
2023-05-24T18:38:40.873Z,9.70
2023-05-24T18:41:11.920Z,9.20
2023-05-24T18:43:40.196Z,8.17
2023-05-24T18:46:09.112Z,8.90
2023-05-24T18:48:37.083Z,8.50
2023-05-24T18:51:06.428Z,8.23
2023-05-24T18:53:34.642Z,8.97
2023-05-24T18:56:02.653Z,8.90
2023-05-24T18:58:32.024Z,8.50
2023-05-24T19:00:59.953Z,8.87
2023-05-24T19:03:28.270Z,8.47
2023-05-24T19:05:56.349Z,8.53
2023-05-24T19:08:24.206Z,8.70
2023-05-24T19:10:52.060Z,10.87
2023-05-24T19:13:19.917Z,9.57
2023-05-24T19:15:49.240Z,10.60
2023-05-24T19:18:17.204Z,9.03
2023-05-24T19:20:45.126Z,8.93
2023-05-24T19:23:13.182Z,9.00
2023-05-24T19:25:42.181Z,9.30
2023-05-24T19:28:11.874Z,9.73
2023-05-24T19:30:39.807Z,9.17
2023-05-24T19:33:09.038Z,9.43
2023-05-24T19:35:37.465Z,9.40
2023-05-24T19:38:05.340Z,10.07
2023-05-24T19:40:33.365Z,9.43
2023-05-24T19:43:03.968Z,10.37
2023-05-24T19:45:31.926Z,10.77
2023-05-24T19:47:59.833Z,10.50
2023-05-24T19:50:31.100Z,9.60
2023-05-24T19:53:02.418Z,10.40
2023-05-24T19:55:30.719Z,10.53
2023-05-24T19:57:58.712Z,10.37
2023-05-24T20:00:26.639Z,10.87
2023-05-24T20:02:54.799Z,10.90
2023-05-24T20:05:22.964Z,11.20
2023-05-24T20:07:52.742Z,10.57
2023-05-24T20:10:20.720Z,11.77
2023-05-24T20:12:48.639Z,10.97
2023-05-24T20:15:17.425Z,11.03
2023-05-24T20:17:46.634Z,10.97
2023-05-24T20:20:14.815Z,12.10
2023-05-24T20:22:42.916Z,14.30
2023-05-24T20:25:12.303Z,11.80
2023-05-24T20:27:41.887Z,11.23
2023-05-24T20:30:11.052Z,11.90
2023-05-24T20:32:39.041Z,11.97
2023-05-24T20:35:08.360Z,11.67
2023-05-24T20:37:36.436Z,11.47
2023-05-24T20:40:05.316Z,12.10
2023-05-24T20:42:35.615Z,13.67
2023-05-24T20:45:04.633Z,12.60
2023-05-24T20:47:32.626Z,11.93
2023-05-24T20:50:00.573Z,11.97
2023-05-24T20:52:28.559Z,11.80
2023-05-24T20:54:56.618Z,12.43
2023-05-24T20:57:24.547Z,12.33
2023-05-24T20:59:53.858Z,12.10
2023-05-24T21:02:21.978Z,12.17
2023-05-24T21:04:50.045Z,12.57
2023-05-24T21:07:18.143Z,12.63
2023-05-24T21:09:46.216Z,12.63
2023-05-24T21:12:14.139Z,12.53
2023-05-24T21:14:42.275Z,12.37
2023-05-24T21:17:14.074Z,12.73
2023-05-24T21:19:42.596Z,13.37
2023-05-24T21:22:10.537Z,12.17
2023-05-24T21:24:38.406Z,13.60
2023-05-24T21:27:06.441Z,13.37
2023-05-24T21:29:37.880Z,12.67
2023-05-24T21:32:06.061Z,13.07
2023-05-24T21:34:36.592Z,12.17
2023-05-24T21:37:05.385Z,12.97
2023-05-24T21:39:33.632Z,12.60
2023-05-24T21:42:02.210Z,13.60
2023-05-24T21:44:30.226Z,14.03
2023-05-24T21:46:58.232Z,13.50
2023-05-24T21:49:27.530Z,13.30
2023-05-24T21:51:56.926Z,13.30
2023-05-24T21:54:24.930Z,13.50
2023-05-24T21:56:52.895Z,13.90
2023-05-24T21:59:22.021Z,14.50
2023-05-24T22:01:49.931Z,13.70
2023-05-24T22:04:17.965Z,13.03
2023-05-24T22:06:46.126Z,14.20
2023-05-24T22:09:15.622Z,14.10
2023-05-24T22:11:43.573Z,13.07
2023-05-24T22:14:11.565Z,14.73
2023-05-24T22:16:39.667Z,14.10
2023-05-24T22:19:14.392Z,13.23
2023-05-24T22:21:42.832Z,14.30
2023-05-24T22:24:11.212Z,14.80
2023-05-24T22:26:41.586Z,15.50
2023-05-24T22:29:09.726Z,13.70
2023-05-24T22:31:37.626Z,14.70
2023-05-24T22:34:06.021Z,13.77
2023-05-24T22:36:34.093Z,14.13
2023-05-24T22:39:02.203Z,14.93
2023-05-24T22:41:30.349Z,14.40
2023-05-24T22:43:59.712Z,14.73
2023-05-24T22:46:27.701Z,15.00
2023-05-24T22:48:56.771Z,13.40
2023-05-24T22:51:25.022Z,14.80
2023-05-24T22:53:54.635Z,13.33
2023-05-24T22:56:22.517Z,14.40
2023-05-24T22:58:53.237Z,14.23
2023-05-24T23:01:22.519Z,14.20
2023-05-24T23:03:50.488Z,14.00
2023-05-24T23:06:21.003Z,14.00
2023-05-24T23:08:49.831Z,14.10
2023-05-24T23:11:17.720Z,14.20
2023-05-24T23:13:46.160Z,14.07
2023-05-24T23:16:18.025Z,13.27
2023-05-24T23:18:47.521Z,14.13
2023-05-24T23:21:16.683Z,13.23
2023-05-24T23:23:46.158Z,14.00
2023-05-24T23:26:14.089Z,13.60
2023-05-24T23:28:42.062Z,13.80
2023-05-24T23:31:10.064Z,14.00
2023-05-24T23:33:37.946Z,12.93
2023-05-24T23:36:09.804Z,13.20
2023-05-24T23:38:37.866Z,14.60
2023-05-24T23:41:05.908Z,14.60
2023-05-24T23:43:33.856Z,13.57
2023-05-24T23:46:01.757Z,14.83
2023-05-24T23:48:29.777Z,15.00
2023-05-24T23:50:57.717Z,14.47
2023-05-24T23:53:27.065Z,14.60
2023-05-24T23:55:54.992Z,14.87
2023-05-24T23:58:22.873Z,13.50
